Terminal Aerodrome Forecast
Issued by NWS Riverton, WY

Home | Current Version | Previous Version | Text Only | Print | Product List | Glossary On
Versions: 1 2 3 4 5 6 7 8 9 10 11 12 13 14 15 16 17 18 19
000
FTUS45 KRIW 061100
TAFRIW
TAF
KRIW 061128Z 0612/0712 30015KT P6SM -RA SCT040 BKN050
     FM061300 36013KT P6SM -RA OVC020
     FM062000 36014G24KT P6SM -RA OVC018
     FM070000 35011KT P6SM VCSH BKN030
     FM070800 02011KT P6SM -RA BKN020=

USA.gov is the U.S. government's official web portal to all federal, state and local government web resources and services.